Flight Track Log - Related Links

Times and Time Zones

All times are in EDT time to prevent confusion due to time zone crossing. See the UAL4583 flight status page for this flight to view local times or setup timezone preferences in your user account.


Time Position Orientation Groundspeed Altitude Reporting Facility
EDT Latitude Longitude Course Direction KTS MPH feet Rate Location/Type
Thu 05:32:39 PM 40.6333 -74.2000 270° West 192 221 2,100  Level New York TRACON
Thu 05:33:39 PM 40.5833 -74.2500 217° Southwest 249 287 4,300 2,250 Climbing New York TRACON
Thu 05:34:39 PM 40.5833 -74.3333 270° West 257 296 6,600 2,500 Climbing New York TRACON
Thu 05:35:00 PM 40.6834 -74.6588 270° West  Level FlightAware Approximate
Thu 05:35:39 PM 40.6000 -74.4333 282° West 250 288 9,300  Level New York TRACON
Thu 05:36:00 PM 40.6834 -74.7819 270° West  Level FlightAware Approximate
Thu 05:36:39 PM 40.6000 -74.5333 270° West 271 312 10,600  Level New York TRACON
Thu 05:37:00 PM 40.6834 -74.9049 270° West  Level FlightAware Approximate
Thu 05:37:39 PM 40.6167 -74.6333 282° West 316 364 11,500  Level New York TRACON
Thu 05:38:05 PM 40.6319 -74.6925 289° West 318 366 11,900 1,214 Climbing New York Center
Thu 05:39:03 PM 40.6450 -74.7944 280° West 335 386 13,200 1,220 Climbing New York Center
Thu 05:40:03 PM 40.6619 -74.9128 281° West 342 394 14,300 1,140 Climbing New York Center
Thu 05:41:04 PM 40.6783 -75.0344 280° West 334 384 15,500 1,131 Climbing New York Center
Thu 05:42:05 PM 40.6533 -75.1478 254° West 323 372 16,600 1,160 Climbing New York Center
Thu 05:43:03 PM 40.6017 -75.2511 237° Southwest 329 379 17,800 1,109 Climbing New York Center
Thu 05:44:04 PM 40.5581 -75.3547 241° Southwest 334 384 18,800 1,041 Climbing New York Center
Thu 05:45:04 PM 40.5147 -75.4475 238° Southwest 334 384 19,900 1,041 Climbing New York Center
Thu 05:46:05 PM 40.4689 -75.5506 240° Southwest 334 384 20,900 1,008 Climbing New York Center
Thu 05:47:03 PM 40.4189 -75.6561 238° Southwest 334 384 21,900 1,017 Climbing New York Center
Thu 05:48:03 PM 40.3703 -75.7672 240° Southwest 339 390 22,900 992 Climbing New York Center
Thu 05:49:04 PM 40.3200 -75.8725 238° Southwest 339 390 23,900 1,041 Climbing New York Center
Thu 05:50:04 PM 40.2675 -75.9775 237° Southwest 350 403 25,000 992 Climbing New York Center
Thu 05:51:05 PM 40.2192 -76.0825 239° Southwest 350 403 25,900 893 Climbing New York Center
Thu 05:52:05 PM 40.1725 -76.1878 240° Southwest 343 395 26,800 966 Climbing New York Center
Thu 05:53:03 PM 40.1178 -76.2892 235° Southwest 344 396 27,800 1,008 Climbing New York Center
Thu 05:54:04 PM 40.0692 -76.3911 238° Southwest 339 390 28,800 1,031 Climbing New York Center
Thu 05:56:15 PM 39.9656 -76.6228 240° Southwest 328 377 31,100 1,005 Climbing Washington Center
Thu 05:57:15 PM 39.9208 -76.7278 241° Southwest 334 384 32,000 900 Climbing Washington Center
Thu 05:58:15 PM 39.8742 -76.8133 235° Southwest 334 384 32,900 750 Climbing Washington Center
Thu 05:59:15 PM 39.8250 -76.9181 239° Southwest 339 390 33,500 550 Climbing Washington Center
Thu 06:00:15 PM 39.7739 -77.0250 238° Southwest 339 390 34,000 500 Climbing Washington Center
Thu 06:01:15 PM 39.7247 -77.1347 240° Southwest 344 396 34,500 650 Climbing Washington Center
Thu 06:02:15 PM 39.6733 -77.2414 238° Southwest 349 402 35,300 750 Climbing Washington Center
Thu 06:03:15 PM 39.6239 -77.3481 239° Southwest 349 402 36,000 350 Climbing Washington Center
Thu 06:04:15 PM 39.5722 -77.4572 238° Southwest 355 409 36,000  Level Washington Center
Thu 06:05:15 PM 39.5203 -77.5661 238° Southwest 355 409 36,000  Level Washington Center
Thu 06:06:15 PM 39.4664 -77.6775 238° Southwest 355 409 36,000  Level Washington Center
Thu 06:07:15 PM 39.4058 -77.8022 238° Southwest 360 414 36,000  Level Washington Center
Thu 06:08:15 PM 39.3600 -77.9108 241° Southwest 360 414 36,000  Level Washington Center
Thu 06:09:15 PM 39.3183 -78.0194 244° Southwest 348 400 36,000  Level Washington Center
Thu 06:10:15 PM 39.2744 -78.1278 242° Southwest 343 395 36,000  Level Washington Center
Thu 06:11:15 PM 39.2303 -78.2389 243° Southwest 343 395 36,000  Level Washington Center
Thu 06:12:15 PM 39.1861 -78.3550 244° Southwest 349 402 36,000  Level Washington Center
Thu 06:13:15 PM 39.1375 -78.4683 241° Southwest 363 418 36,000  Level Washington Center
Thu 06:14:15 PM 39.1019 -78.5633 244° Southwest 363 418 36,000  Level Washington Center
Thu 06:15:15 PM 39.0464 -78.6972 242° Southwest 363 418 36,000  Level Washington Center
Thu 06:16:15 PM 39.0017 -78.8078 243° Southwest 358 412 36,000  Level Washington Center
Thu 06:17:15 PM 38.9569 -78.9178 242° Southwest 358 412 36,000  Level Washington Center
Thu 06:18:15 PM 38.9122 -79.0306 243° Southwest 358 412 36,000  Level Washington Center
Thu 06:19:15 PM 38.8653 -79.1403 241° Southwest 358 412 36,000  Level Washington Center
Thu 06:20:15 PM 38.8325 -79.2586 250° West 358 412 36,000  Level Washington Center
Thu 06:21:15 PM 38.8100 -79.3775 256° West 347 399 36,000  Level Washington Center
Thu 06:22:15 PM 38.7894 -79.4961 258° West 347 399 36,000  Level Washington Center
Thu 06:23:15 PM 38.7667 -79.6228 257° West 358 412 36,000  Level Washington Center
Thu 06:24:15 PM 38.7458 -79.7414 257° West 358 412 36,000  Level Washington Center
Thu 06:25:15 PM 38.7233 -79.8494 255° West 352 405 36,000  Level Washington Center
Thu 06:26:15 PM 38.7044 -79.9681 259° West 352 405 36,000  Level Washington Center
Thu 06:27:15 PM 38.6792 -80.0914 255° West 352 405 36,000  Level Washington Center
Thu 06:28:25 PM 38.6500 -80.2364 256° West 350 403 36,000  Level Indianapolis Center
Thu 06:29:27 PM 38.6267 -80.3589 256° West 353 406 36,000  Level Indianapolis Center
Thu 06:30:29 PM 38.6031 -80.4808 256° West 354 407 36,000  Level Indianapolis Center
Thu 06:31:31 PM 38.5811 -80.6022 257° West 351 404 36,000  Level Indianapolis Center
Thu 06:32:33 PM 38.5564 -80.7244 256° West 354 407 36,000  Level Indianapolis Center
Thu 06:33:35 PM 38.5325 -80.8461 256° West 353 406 36,000  Level Indianapolis Center
Thu 06:34:37 PM 38.5047 -80.9931 256° West 355 409 36,000  Level Indianapolis Center
Thu 06:35:39 PM 38.4811 -81.1142 256° West 352 405 36,000  Level Indianapolis Center
Thu 06:36:41 PM 38.4572 -81.2367 256° West 352 405 36,000  Level Indianapolis Center
Thu 06:37:43 PM 38.4458 -81.3589 263° West 346 398 36,000  Level Indianapolis Center
Thu 06:38:45 PM 38.4428 -81.4839 268° West 349 402 36,000  Level Indianapolis Center
Thu 06:39:47 PM 38.4408 -81.6094 269° West 350 403 36,000  Level Indianapolis Center
Thu 06:40:49 PM 38.4197 -81.7294 257° West 346 398 36,000  Level Indianapolis Center
Thu 06:41:51 PM 38.3842 -81.8481 249° West 355 409 36,000  Level Indianapolis Center
Thu 06:42:54 PM 38.3475 -81.9644 248° West 354 407 36,000  Level Indianapolis Center
Thu 06:43:56 PM 38.3050 -82.1053 249° West 355 409 36,000  Level Indianapolis Center
Thu 06:44:58 PM 38.2683 -82.2239 249° West 358 412 36,000  Level Indianapolis Center
Thu 06:46:00 PM 38.2328 -82.3417 249° West 356 410 36,000  Level Indianapolis Center
Thu 06:47:02 PM 38.1961 -82.4586 248° West 356 410 36,000  Level Indianapolis Center
Thu 06:48:04 PM 38.1600 -82.5758 249° West 357 411 36,000  Level Indianapolis Center
Thu 06:49:06 PM 38.1175 -82.7119 248° West 356 410 36,000  Level Indianapolis Center
Thu 06:50:08 PM 38.0819 -82.8267 249° West 352 405 36,000  Level Indianapolis Center
Thu 06:51:10 PM 38.0331 -82.9386 241° Southwest 361 415 36,000  Level Indianapolis Center
Thu 06:52:12 PM 37.9781 -83.0478 237° Southwest 365 420 36,000  Level Indianapolis Center
Thu 06:53:14 PM 37.9239 -83.1553 237° Southwest 363 418 36,000 -242 Level Indianapolis Center
Thu 06:54:16 PM 37.8606 -83.2794 237° Southwest 361 415 35,500 -726 Descending Indianapolis Center
Thu 06:55:18 PM 37.8067 -83.3856 237° Southwest 360 414 34,500 -720 Descending Indianapolis Center
Thu 06:56:21 PM 37.7536 -83.4881 237° Southwest 351 404 34,000 -242 Descending Indianapolis Center
Thu 06:57:22 PM 37.7039 -83.5858 237° Southwest 336 387 34,000  Level Indianapolis Center
Thu 06:58:24 PM 37.6525 -83.6861 237° Southwest 339 390 34,000  Level Indianapolis Center
Thu 06:59:26 PM 37.5900 -83.8064 237° Southwest 350 403 34,000  Level Indianapolis Center
Thu 07:00:28 PM 37.5353 -83.9144 237° Southwest 362 417 34,000 -336 Level Indianapolis Center
Thu 07:01:31 PM 37.4792 -84.0219 237° Southwest 368 423 33,300 -864 Descending Indianapolis Center
Thu 07:02:33 PM 37.4233 -84.1303 237° Southwest 369 425 32,200 -1,065 Descending Indianapolis Center
Thu 07:03:35 PM 37.3689 -84.2358 237° Southwest 363 418 31,100 -1,403 Descending Indianapolis Center
Thu 07:04:37 PM 37.3036 -84.3614 237° Southwest 368 423 29,300 -1,597 Descending Indianapolis Center
Thu 07:05:39 PM 37.2447 -84.4731 237° Southwest 383 441 27,800 -1,452 Descending Indianapolis Center
Thu 07:06:41 PM 37.1831 -84.5889 236° Southwest 396 456 26,300 -1,463 Descending Indianapolis Center
Thu 07:07:42 PM 37.1222 -84.7075 237° Southwest 405 466 24,800 -1,463 Descending Indianapolis Center
Thu 07:08:44 PM 37.0603 -84.8208 236° Southwest 397 457 23,300 -1,355 Descending Indianapolis Center
Thu 07:09:46 PM 36.9961 -84.9442 237° Southwest 388 447 22,000 -629 Descending Indianapolis Center
Thu 07:10:48 PM 36.9372 -85.0522 236° Southwest 380 437 22,000  Level Indianapolis Center
Thu 07:11:49 PM 36.8775 -85.1653 237° Southwest 388 447 22,000  Level Indianapolis Center
Thu 07:12:51 PM 36.8172 -85.2786 236° Southwest 392 451 22,000  Level Indianapolis Center
Thu 07:13:53 PM 36.7536 -85.3944 236° Southwest 347 399 22,000  Level Indianapolis Center
Thu 07:14:33 PM 36.7206 -85.4619 239° Southwest 357 411 22,000  Level Memphis Center
Thu 07:15:33 PM 36.6728 -85.5683 241° Southwest 351 404 22,000 -248 Level Memphis Center
Thu 07:16:34 PM 36.6222 -85.6697 238° Southwest 351 404 21,500 -1,000 Descending Memphis Center
Thu 07:17:33 PM 36.5800 -85.7600 240° Southwest 343 395 20,000 -1,261 Descending Memphis Center
Thu 07:18:33 PM 36.5394 -85.8500 241° Southwest 311 358 19,000 -1,232 Descending Memphis Center
Thu 07:20:04 PM 36.4764 -85.9800 239° Southwest 300 345 16,900 -1,409 Descending Indianapolis Center
Thu 07:20:28 PM 36.4667 -86.0167 252° West 295 339 16,300 -1,733 Descending Nashville TRACON
Thu 07:21:34 PM 36.4167 -86.1000 233° Southwest 281 323 14,300 -1,714 Descending Nashville TRACON
Thu 07:22:34 PM 36.3783 -86.1889 242° Southwest 291 335 12,700 -1,412 Descending Memphis Center
Thu 07:23:33 PM 36.3411 -86.2631 238° Southwest 281 323 11,500 -1,361 Descending Memphis Center
Thu 07:24:33 PM 36.3039 -86.3397 239° Southwest 281 323 10,000 -1,488 Descending Memphis Center
Thu 07:25:34 PM 36.2669 -86.4161 239° Southwest 274 315 8,500 -1,537 Descending Memphis Center
Thu 07:26:34 PM 36.2278 -86.4978 239° Southwest 274 315 6,900 -1,664 Descending Memphis Center
Thu 07:27:33 PM 36.1664 -86.5367 207° Southwest 255 293 5,200 -950 Descending Memphis Center
Thu 07:28:34 PM 36.0986 -86.5681 201° Southwest 249 287 5,000 -450 Descending Memphis Center
Thu 07:29:33 PM 36.0389 -86.5914 198° South 237 273 4,300 -850 Descending Memphis Center
Thu 07:30:34 PM 35.9881 -86.6347 215° Southwest 227 261 3,300 -984 Descending Memphis Center

Login

Don't have an account? Register now (free) for customized features, flight alerts, and more!